createdAt,value
2018-03-02T00:01:56.758Z,101536.90
2018-03-02T00:04:25.948Z,101532.88
2018-03-02T00:06:55.029Z,101522.18
2018-03-02T00:09:24.539Z,101525.89
2018-03-02T00:11:53.690Z,101530.19
2018-03-02T00:14:22.754Z,101524.93
2018-03-02T00:16:52.172Z,101531.31
2018-03-02T00:19:21.234Z,101521.34
2018-03-02T00:21:50.308Z,101519.09
2018-03-02T00:24:19.405Z,101525.91
2018-03-02T00:26:48.471Z,101529.53
2018-03-02T00:29:18.010Z,101520.98
2018-03-02T00:31:47.443Z,101522.63
2018-03-02T00:34:16.700Z,101522.05
2018-03-02T00:36:46.065Z,101527.14
2018-03-02T00:39:15.151Z,101523.16
2018-03-02T00:41:44.513Z,101525.35
2018-03-02T00:44:13.639Z,101527.31
2018-03-02T00:46:42.788Z,101528.08
2018-03-02T00:49:11.858Z,101522.52
2018-03-02T00:51:41.135Z,101520.58
2018-03-02T00:54:10.459Z,101515.72
2018-03-02T00:56:39.527Z,101515.05
2018-03-02T00:59:09.659Z,101510.77
2018-03-02T01:01:38.823Z,101509.64
2018-03-02T01:04:07.886Z,101506.98
2018-03-02T01:06:36.961Z,101504.73
2018-03-02T01:09:06.231Z,101490.45
2018-03-02T01:11:35.352Z,101494.23
2018-03-02T01:14:04.542Z,101490.06
2018-03-02T01:16:34.151Z,101484.37
2018-03-02T01:19:03.471Z,101479.22
2018-03-02T01:21:32.543Z,101483.43
2018-03-02T01:24:01.994Z,101487.77
2018-03-02T01:26:31.074Z,101484.25
2018-03-02T01:29:01.455Z,101483.74
2018-03-02T01:31:30.578Z,101478.73
2018-03-02T01:33:59.642Z,101480.49
2018-03-02T01:36:29.017Z,101478.70
2018-03-02T01:38:58.212Z,101474.38
2018-03-02T01:41:27.341Z,101468.57
2018-03-02T01:43:56.414Z,101463.91
2018-03-02T01:46:26.122Z,101458.85
2018-03-02T01:48:55.205Z,101469.42
2018-03-02T01:51:37.360Z,101467.95
2018-03-02T01:54:06.432Z,101461.96
2018-03-02T01:56:36.377Z,101459.89
2018-03-02T01:59:05.460Z,101456.73
2018-03-02T02:01:34.808Z,101450.79
2018-03-02T02:04:03.881Z,101452.53
2018-03-02T02:06:32.967Z,101452.91
2018-03-02T02:09:02.046Z,101456.14
2018-03-02T02:11:31.143Z,101452.02
2018-03-02T02:14:00.624Z,101454.95
2018-03-02T02:16:30.104Z,101462.80
2018-03-02T02:18:59.201Z,101457.88
2018-03-02T02:21:28.510Z,101464.04
2018-03-02T02:23:57.604Z,101456.23
2018-03-02T02:26:26.933Z,101451.59
2018-03-02T02:28:56.007Z,101447.69
2018-03-02T02:31:25.373Z,101441.44
2018-03-02T02:33:54.837Z,101443.59
2018-03-02T02:36:24.488Z,101437.91
2018-03-02T02:38:53.559Z,101434.11
2018-03-02T02:41:22.962Z,101435.03
2018-03-02T02:43:52.109Z,101430.20
2018-03-02T02:46:22.589Z,101422.54
2018-03-02T02:48:52.496Z,101419.00
2018-03-02T02:51:21.562Z,101413.99
2018-03-02T02:53:50.696Z,101410.30
2018-03-02T02:56:20.180Z,101405.48
2018-03-02T02:58:49.712Z,101399.97
2018-03-02T03:01:19.684Z,101399.73
2018-03-02T03:03:48.913Z,101408.73
2018-03-02T03:06:18.443Z,101405.77
2018-03-02T03:08:47.600Z,101410.69
2018-03-02T03:11:16.700Z,101407.76
2018-03-02T03:13:46.043Z,101404.91
2018-03-02T03:16:15.545Z,101406.77
2018-03-02T03:18:45.143Z,101400.44
2018-03-02T03:21:14.649Z,101392.97
2018-03-02T03:23:44.726Z,101394.28
2018-03-02T03:26:15.306Z,101397.32
2018-03-02T03:28:45.350Z,101393.08
2018-03-02T03:31:14.491Z,101393.00
2018-03-02T03:33:43.561Z,101393.38
2018-03-02T03:36:12.636Z,101392.66
2018-03-02T03:38:42.009Z,101386.07
2018-03-02T03:41:11.224Z,101383.19
2018-03-02T03:43:40.403Z,101380.45
2018-03-02T03:46:09.501Z,101379.84
2018-03-02T03:48:38.862Z,101378.92
2018-03-02T03:51:07.990Z,101381.38
2018-03-02T03:53:38.012Z,101373.19
2018-03-02T03:56:07.343Z,101374.77
2018-03-02T03:58:36.449Z,101371.76
2018-03-02T04:01:09.288Z,101375.25
2018-03-02T04:03:39.792Z,101375.79
2018-03-02T04:06:09.476Z,101371.93
2018-03-02T04:08:38.880Z,101375.78
2018-03-02T04:11:08.011Z,101373.09
2018-03-02T04:13:37.367Z,101367.48
2018-03-02T04:16:06.438Z,101363.59
2018-03-02T04:18:36.137Z,101370.22
2018-03-02T04:21:06.293Z,101370.22
2018-03-02T04:23:35.364Z,101363.45
2018-03-02T04:26:04.683Z,101371.77
2018-03-02T04:28:33.881Z,101367.95
2018-03-02T04:31:03.499Z,101365.25
2018-03-02T04:33:32.825Z,101368.63
2018-03-02T04:36:02.564Z,101363.01
2018-03-02T04:38:31.640Z,101368.58
2018-03-02T04:41:00.710Z,101357.97
2018-03-02T04:43:29.891Z,101353.20
2018-03-02T04:45:59.036Z,101355.86
2018-03-02T04:48:28.227Z,101355.28
2018-03-02T04:50:57.634Z,101335.57
2018-03-02T04:53:26.787Z,101337.38
2018-03-02T04:55:55.855Z,101331.86
2018-03-02T04:58:25.130Z,101324.41
2018-03-02T05:00:54.284Z,101321.87
2018-03-02T05:03:23.958Z,101321.09
2018-03-02T05:05:53.271Z,101312.44
2018-03-02T05:08:22.412Z,101309.47
2018-03-02T05:10:51.546Z,101309.62
2018-03-02T05:13:20.641Z,101308.31
2018-03-02T05:15:49.738Z,101313.23
2018-03-02T05:18:19.396Z,101307.92
2018-03-02T05:20:48.514Z,101311.50
2018-03-02T05:23:17.646Z,101305.30
2018-03-02T05:25:46.748Z,101314.27
2018-03-02T05:28:15.984Z,101307.69
2018-03-02T05:30:45.629Z,101305.61
2018-03-02T05:33:14.829Z,101312.57
2018-03-02T06:19:52.002Z,101261.27
2018-03-02T06:22:21.099Z,101700.47
2018-03-02T06:24:50.704Z,101559.00
2018-03-02T06:27:19.913Z,101357.48
2018-03-02T06:29:49.021Z,101203.80
2018-03-02T06:32:18.300Z,101127.22
2018-03-02T06:34:47.551Z,100742.33
2018-03-02T06:37:16.638Z,100937.59
2018-03-02T06:39:45.816Z,101021.73
2018-03-02T06:42:15.265Z,101066.28
2018-03-02T06:44:44.891Z,101111.39
2018-03-02T06:47:14.608Z,101201.67
2018-03-02T06:49:43.737Z,101161.84
2018-03-02T06:52:12.819Z,101133.52
2018-03-02T06:54:42.378Z,101136.16
2018-03-02T06:57:11.703Z,101149.34
2018-03-02T06:59:41.571Z,101146.79
2018-03-02T07:02:11.287Z,101164.27
2018-03-02T07:04:40.928Z,101184.48
2018-03-02T07:07:11.199Z,101192.59
2018-03-02T07:09:40.603Z,101190.44
2018-03-02T07:12:10.621Z,101189.04
2018-03-02T07:14:39.998Z,101176.76
2018-03-02T07:17:09.087Z,101179.44
2018-03-02T07:19:38.167Z,101181.48
2018-03-02T07:22:07.588Z,101181.97
2018-03-02T07:24:37.829Z,101178.68
2018-03-02T07:27:06.914Z,101169.80
2018-03-02T07:29:35.992Z,101186.33
2018-03-02T07:32:05.073Z,101188.92
2018-03-02T07:34:34.187Z,101179.80
2018-03-02T07:37:03.639Z,101175.09
2018-03-02T07:39:34.164Z,101166.50
2018-03-02T07:42:03.882Z,101173.06
2018-03-02T07:44:33.540Z,101177.05
2018-03-02T07:47:03.745Z,101179.71
2018-03-02T07:49:33.391Z,101180.81
2018-03-02T07:52:02.655Z,101182.74
2018-03-02T07:54:31.985Z,101184.77
2018-03-02T07:57:02.486Z,101190.19
2018-03-02T07:59:31.563Z,101186.61
2018-03-02T08:02:01.571Z,101191.34
2018-03-02T08:04:31.607Z,101199.27
2018-03-02T08:07:01.454Z,101203.33
2018-03-02T08:09:31.983Z,101205.16
2018-03-02T08:12:01.091Z,101208.78
2018-03-02T08:14:30.721Z,101209.89
2018-03-02T08:16:59.803Z,101210.16
2018-03-02T08:19:28.898Z,101225.55
2018-03-02T08:21:58.799Z,101216.20
2018-03-02T08:24:27.888Z,101214.22
2018-03-02T08:26:57.180Z,101220.11
2018-03-02T08:29:27.146Z,101220.25
2018-03-02T08:31:59.087Z,101216.81
2018-03-02T08:34:28.342Z,101214.27
2018-03-02T08:36:57.826Z,101218.12
2018-03-02T08:39:27.098Z,101213.95
2018-03-02T08:41:57.328Z,101218.14
2018-03-02T08:44:26.834Z,101212.89
2018-03-02T08:46:57.568Z,101211.94
2018-03-02T08:49:27.872Z,101212.58
2018-03-02T08:51:57.718Z,101207.35
2018-03-02T08:54:27.199Z,101204.06
2018-03-02T08:56:56.282Z,101199.06
2018-03-02T08:59:25.346Z,101195.98
2018-03-02T09:01:55.306Z,101185.89
2018-03-02T09:04:25.121Z,101185.63
2018-03-02T09:06:54.475Z,101182.78
2018-03-02T09:09:24.688Z,101191.33
2018-03-02T09:11:53.974Z,101194.52
2018-03-02T09:14:23.809Z,101188.78
2018-03-02T09:16:53.005Z,101190.02
2018-03-02T09:19:22.719Z,101192.97
2018-03-02T09:21:53.498Z,101191.31
2018-03-02T09:24:23.355Z,101189.38
2018-03-02T09:26:53.748Z,101187.62
2018-03-02T09:29:23.351Z,101186.24
2018-03-02T09:31:55.107Z,101189.28
2018-03-02T09:34:25.290Z,101183.38
2018-03-02T09:36:55.234Z,101178.06
2018-03-02T09:39:24.604Z,101175.63
2018-03-02T09:41:54.415Z,101172.07
2018-03-02T09:44:23.728Z,101175.77
2018-03-02T09:46:52.807Z,101172.16
2018-03-02T09:49:22.625Z,101178.42
2018-03-02T09:51:52.993Z,101177.76
2018-03-02T09:54:23.293Z,101173.84
2018-03-02T09:56:53.096Z,101171.86
2018-03-02T09:59:23.370Z,101171.26
2018-03-02T10:01:53.885Z,101172.63
2018-03-02T10:04:23.421Z,101173.93
2018-03-02T10:06:52.599Z,101163.94
2018-03-02T10:09:21.696Z,101163.86
2018-03-02T10:11:51.283Z,101161.97
2018-03-02T10:14:21.052Z,101165.54
2018-03-02T10:16:50.523Z,101159.99
2018-03-02T10:19:21.395Z,101156.45
2018-03-02T10:21:52.461Z,101159.12
2018-03-02T10:24:21.855Z,101150.76
2018-03-02T10:26:51.296Z,101154.92
2018-03-02T10:29:21.915Z,101148.41
2018-03-02T10:31:51.344Z,101152.65
2018-03-02T10:34:22.467Z,101149.20
2018-03-02T10:36:52.985Z,101142.44
2018-03-02T10:39:22.670Z,101136.34
2018-03-02T10:41:52.318Z,101132.63
2018-03-02T10:44:21.467Z,101134.39
2018-03-02T10:46:50.701Z,101138.22
2018-03-02T10:49:19.791Z,101129.25
2018-03-02T10:51:48.875Z,101135.96
2018-03-02T10:54:17.948Z,101136.05
2018-03-02T10:56:47.315Z,101132.59
2018-03-02T10:59:16.390Z,101130.50
2018-03-02T11:01:51.079Z,101117.33
2018-03-02T11:04:20.166Z,101116.70
2018-03-02T11:06:49.616Z,101117.09
2018-03-02T11:09:18.703Z,101117.27
2018-03-02T11:11:47.778Z,101115.23
2018-03-02T11:14:16.853Z,101124.56
2018-03-02T11:16:45.927Z,101119.03
2018-03-02T11:19:15.003Z,101113.90
2018-03-02T11:21:44.319Z,101116.20
2018-03-02T11:24:13.805Z,101112.69
2018-03-02T11:26:43.463Z,101105.88
2018-03-02T11:29:12.804Z,101099.69
2018-03-02T11:31:42.524Z,101097.06
2018-03-02T11:34:11.615Z,101097.60
2018-03-02T11:36:40.898Z,101087.73
2018-03-02T11:39:10.223Z,101087.32
2018-03-02T11:41:41.837Z,101082.62
2018-03-02T11:44:12.173Z,101087.80
2018-03-02T11:46:42.096Z,101080.33
2018-03-02T11:49:11.406Z,101073.59
2018-03-02T11:51:40.565Z,101070.53
2018-03-02T11:54:09.747Z,101067.94
2018-03-02T11:56:40.218Z,101057.48
2018-03-02T11:59:09.505Z,101054.55
2018-03-02T12:01:38.646Z,101049.17
2018-03-02T12:04:08.765Z,101054.22
2018-03-02T12:06:37.866Z,101041.40
2018-03-02T12:09:07.671Z,101046.42
2018-03-02T12:11:37.520Z,101038.83
2018-03-02T12:14:07.867Z,101030.94
2018-03-02T12:16:38.186Z,101035.71
2018-03-02T12:19:07.346Z,101033.73
2018-03-02T12:21:38.363Z,101027.36
2018-03-02T12:24:07.499Z,101022.84
2018-03-02T12:26:36.805Z,101026.81
2018-03-02T12:29:05.913Z,101029.41
2018-03-02T12:31:34.996Z,101031.61
2018-03-02T12:34:05.835Z,101020.14
2018-03-02T12:36:34.977Z,101022.21
2018-03-02T12:39:04.351Z,101017.53
2018-03-02T12:41:34.111Z,101009.69
2018-03-02T12:44:04.601Z,101011.34
2018-03-02T12:46:33.693Z,101010.02
2018-03-02T12:49:02.760Z,101010.77
2018-03-02T12:51:31.950Z,101004.75
2018-03-02T12:54:02.060Z,101003.97
2018-03-02T12:56:31.794Z,101005.89
2018-03-02T12:59:01.475Z,100999.89
2018-03-02T13:01:30.551Z,100999.31
2018-03-02T13:04:00.812Z,100993.67
2018-03-02T13:06:31.290Z,101001.78
2018-03-02T13:09:01.615Z,100996.48
2018-03-02T13:11:30.807Z,100992.25
2018-03-02T13:14:00.952Z,100999.16
2018-03-02T13:16:31.163Z,101005.96
2018-03-02T13:19:02.010Z,101000.64
2018-03-02T13:21:32.192Z,101004.22
2018-03-02T13:24:02.088Z,100995.35
2018-03-02T13:26:43.542Z,100992.25
2018-03-02T13:29:13.224Z,100994.91
2018-03-02T13:31:42.346Z,100994.02
2018-03-02T13:34:25.447Z,100994.00
2018-03-02T13:36:54.526Z,100989.30
2018-03-02T13:39:35.593Z,100994.41
2018-03-02T13:42:13.053Z,100984.30
2018-03-02T13:44:42.758Z,100980.99
2018-03-02T13:47:12.761Z,100983.10
2018-03-02T13:49:54.430Z,100972.81
2018-03-02T13:52:23.547Z,100975.39
2018-03-02T13:54:53.488Z,100967.03
2018-03-02T13:57:36.527Z,100963.66
2018-03-02T14:00:07.914Z,100958.31
2018-03-02T14:02:49.478Z,100953.53
2018-03-02T14:05:18.929Z,100962.77
2018-03-02T14:07:48.612Z,100962.12
2018-03-02T14:10:18.895Z,100963.41
2018-03-02T14:12:47.968Z,100957.73
2018-03-02T14:15:17.477Z,100960.42
2018-03-02T14:17:47.970Z,100960.55
2018-03-02T14:20:18.480Z,100957.61
2018-03-02T14:22:47.916Z,100955.39
2018-03-02T14:25:17.498Z,100956.72
2018-03-02T14:27:46.737Z,100943.72
2018-03-02T14:30:16.225Z,100943.09
2018-03-02T14:32:46.374Z,100941.84
2018-03-02T14:35:16.220Z,100942.04
2018-03-02T14:37:45.595Z,100936.13
2018-03-02T14:40:15.175Z,100932.73
2018-03-02T14:42:45.296Z,100934.23
2018-03-02T14:45:15.782Z,100930.50
2018-03-02T14:47:46.906Z,100924.70
2018-03-02T14:50:16.118Z,100917.30
2018-03-02T14:52:45.726Z,100921.02
2018-03-02T14:55:15.906Z,100915.19
2018-03-02T14:57:45.640Z,100917.25
2018-03-02T15:00:14.867Z,100915.42
2018-03-02T15:02:44.067Z,100915.27
2018-03-02T15:05:13.583Z,100914.83
2018-03-02T15:07:43.313Z,100910.64
2018-03-02T15:10:13.287Z,100907.72
2018-03-02T15:12:42.552Z,100913.84
2018-03-02T15:15:12.408Z,100909.23
2018-03-02T15:17:42.065Z,100904.77
2018-03-02T15:20:11.662Z,100902.30
2018-03-02T15:22:41.296Z,100903.18
2018-03-02T15:25:11.501Z,100902.82
2018-03-02T15:27:40.599Z,100897.45
2018-03-02T15:30:10.429Z,100902.76
2018-03-02T15:32:39.512Z,100904.86
2018-03-02T15:35:08.588Z,100904.48
2018-03-02T15:37:38.017Z,100899.00
2018-03-02T15:40:07.130Z,100898.88
2018-03-02T15:42:36.703Z,100897.54
2018-03-02T15:45:05.886Z,100894.53
2018-03-02T15:47:34.970Z,100902.70
2018-03-02T15:50:04.082Z,100903.06
2018-03-02T15:52:33.282Z,100901.39
2018-03-02T15:55:02.407Z,100897.70
2018-03-02T15:57:32.847Z,100899.36
2018-03-02T16:00:02.780Z,100896.88
2018-03-02T16:02:32.064Z,100901.84
2018-03-02T16:05:01.684Z,100898.16
2018-03-02T16:07:31.322Z,100899.00
2018-03-02T16:10:00.773Z,100895.68
2018-03-02T16:12:29.875Z,100894.02
2018-03-02T16:14:59.500Z,100893.58
2018-03-02T16:17:28.968Z,100891.10
2018-03-02T16:19:58.358Z,100891.52
2018-03-02T16:22:27.767Z,100889.42
2018-03-02T16:24:56.911Z,100896.41
2018-03-02T16:27:25.990Z,100894.36
2018-03-02T16:29:55.416Z,100898.50
2018-03-02T16:32:24.732Z,100895.64
2018-03-02T16:34:54.159Z,100896.05
2018-03-02T16:37:24.393Z,100891.96
2018-03-02T16:39:53.587Z,100894.88
2018-03-02T16:42:22.711Z,100899.83
2018-03-02T16:44:53.674Z,100895.75
2018-03-02T16:47:23.071Z,100896.23
2018-03-02T16:49:52.522Z,100899.58
2018-03-02T16:52:22.637Z,100895.95
2018-03-02T16:54:52.690Z,100893.07
2018-03-02T16:57:21.937Z,100889.41
2018-03-02T16:59:51.791Z,100889.41
2018-03-02T17:02:21.749Z,100884.09
2018-03-02T17:04:50.942Z,100887.02
2018-03-02T17:07:20.016Z,100890.33
2018-03-02T17:09:49.095Z,100887.47
2018-03-02T17:12:18.747Z,100885.41
2018-03-02T17:14:48.400Z,100888.30
2018-03-02T17:17:17.578Z,100883.77
2018-03-02T17:19:47.398Z,100885.05
2018-03-02T17:22:16.490Z,100888.79
2018-03-02T17:24:45.863Z,100894.59
2018-03-02T17:27:15.606Z,100896.70
2018-03-02T17:29:44.805Z,100895.47
2018-03-02T17:32:14.162Z,100885.53
2018-03-02T17:34:43.614Z,100892.99
2018-03-02T17:37:12.699Z,100887.23
2018-03-02T17:39:41.910Z,100893.08
2018-03-02T17:42:11.678Z,100883.97
2018-03-02T17:44:40.886Z,100878.30
2018-03-02T17:47:10.183Z,100873.75
2018-03-02T17:49:39.595Z,100875.00
2018-03-02T17:52:08.686Z,100880.34
2018-03-02T17:54:37.763Z,100879.95
2018-03-02T17:57:07.195Z,100882.83
2018-03-02T17:59:36.271Z,100881.60
2018-03-02T18:02:05.599Z,100890.33
2018-03-02T18:04:34.750Z,100898.65
2018-03-02T18:07:04.332Z,100898.66
2018-03-02T18:09:33.846Z,100894.11
2018-03-02T18:12:03.305Z,100895.41
2018-03-02T18:14:32.993Z,100891.24
2018-03-02T18:17:02.212Z,100892.05
2018-03-02T18:19:31.614Z,100896.59
2018-03-02T18:22:00.691Z,100893.23
2018-03-02T18:24:30.170Z,100889.91
2018-03-02T18:26:59.255Z,100882.86
2018-03-02T18:29:28.875Z,100889.91
2018-03-02T18:31:57.947Z,100890.70
2018-03-02T18:34:27.144Z,100889.88
2018-03-02T18:36:56.218Z,100884.08
2018-03-02T18:39:25.526Z,100888.22
2018-03-02T18:41:54.584Z,100889.88
2018-03-02T18:44:24.701Z,100895.31
2018-03-02T18:46:54.015Z,100887.06
2018-03-02T18:49:24.012Z,100880.87
2018-03-02T18:54:47.501Z,100879.22
2018-03-02T18:57:16.678Z,100880.45
2018-03-02T18:59:46.100Z,100882.53
2018-03-02T19:02:15.207Z,100879.98
2018-03-02T19:04:44.305Z,100883.30
2018-03-02T19:07:13.653Z,100879.14
2018-03-02T19:09:42.772Z,100879.14
2018-03-02T19:12:11.970Z,100882.05
2018-03-02T19:14:41.051Z,100887.86
2018-03-02T19:17:10.297Z,100890.37
2018-03-02T19:19:39.703Z,100889.14
2018-03-02T19:22:08.801Z,100884.96
2018-03-02T19:24:37.911Z,100890.34
2018-03-02T19:27:07.016Z,100898.59
2018-03-02T19:29:37.467Z,100891.61
2018-03-02T19:32:06.876Z,100891.22
2018-03-02T19:34:36.379Z,100892.86
2018-03-02T19:37:05.711Z,100892.83
2018-03-02T19:39:34.817Z,100891.24
2018-03-02T19:42:03.894Z,100884.92
2018-03-02T19:44:32.971Z,100887.93
2018-03-02T19:47:02.412Z,100893.73
2018-03-02T19:49:31.521Z,100892.45
2018-03-02T19:52:00.610Z,100894.42
2018-03-02T19:54:29.679Z,100899.75
2018-03-02T19:56:59.351Z,100900.19
2018-03-02T19:59:28.923Z,100893.51
2018-03-02T20:01:57.991Z,100897.25
2018-03-02T20:04:27.067Z,100898.84
2018-03-02T20:06:56.761Z,100899.27
2018-03-02T20:09:25.847Z,100897.66
2018-03-02T20:11:54.919Z,100900.19
2018-03-02T20:14:25.403Z,100902.63
2018-03-02T20:16:54.623Z,100902.53
2018-03-02T20:19:24.030Z,100900.41
2018-03-02T20:21:53.117Z,100902.88
2018-03-02T20:24:22.198Z,100896.69
2018-03-02T20:26:51.535Z,100902.03
2018-03-02T20:29:20.608Z,100894.16
2018-03-02T20:31:49.689Z,100896.17
2018-03-02T20:34:18.774Z,100892.05
2018-03-02T20:36:47.844Z,100892.84
2018-03-02T20:39:16.922Z,100884.10
2018-03-02T20:41:46.063Z,100888.17
2018-03-02T20:44:15.135Z,100893.12
2018-03-02T20:46:45.119Z,100889.77
2018-03-02T20:49:14.460Z,100891.01
2018-03-02T20:51:43.563Z,100892.66
2018-03-02T20:54:12.638Z,100890.99
2018-03-02T20:56:41.712Z,100891.83
2018-03-02T20:59:10.792Z,100897.62
2018-03-02T21:01:39.948Z,100888.51
2018-03-02T21:04:09.023Z,100893.88
2018-03-02T21:06:38.131Z,100892.67
2018-03-02T21:09:07.235Z,100893.08
2018-03-02T21:11:36.616Z,100897.20
2018-03-02T21:14:06.352Z,100890.20
2018-03-02T21:16:35.459Z,100893.55
2018-03-02T21:19:04.542Z,100889.06
2018-03-02T21:21:34.051Z,100890.37
2018-03-02T21:24:03.137Z,100894.94
2018-03-02T21:26:32.552Z,100887.89
2018-03-02T21:29:02.044Z,100886.24
2018-03-02T21:31:31.124Z,100885.08
2018-03-02T21:34:00.508Z,100881.71
2018-03-02T21:36:30.263Z,100886.62
2018-03-02T21:38:59.956Z,100879.94
2018-03-02T21:41:29.035Z,100881.61
2018-03-02T21:43:58.109Z,100878.70
2018-03-02T21:46:27.263Z,100875.77
2018-03-02T21:48:57.779Z,100871.20
2018-03-02T21:51:28.127Z,100879.47
2018-03-02T21:53:57.283Z,100877.84
2018-03-02T21:56:26.451Z,100873.70
2018-03-02T21:58:55.528Z,100872.44
2018-03-02T22:01:27.369Z,100877.48
2018-03-02T22:03:56.515Z,100881.20
2018-03-02T22:06:25.740Z,100885.34
2018-03-02T22:08:55.798Z,100883.30
2018-03-02T22:11:25.149Z,100880.87
2018-03-02T22:13:54.364Z,100882.99
2018-03-02T22:16:23.519Z,100887.53
2018-03-02T22:18:52.669Z,100880.00
2018-03-02T22:21:21.861Z,100882.46
2018-03-02T22:23:51.293Z,100882.94
2018-03-02T22:26:20.386Z,100880.02
2018-03-02T22:28:51.178Z,100884.91
2018-03-02T22:31:20.295Z,100883.66
2018-03-02T22:33:50.039Z,100880.34
2018-03-02T22:36:19.111Z,100880.34
2018-03-02T22:38:48.264Z,100881.97
2018-03-02T22:41:17.997Z,100883.63
2018-03-02T22:43:47.110Z,100883.25
2018-03-02T22:46:16.191Z,100877.50
2018-03-02T22:48:46.312Z,100883.02
2018-03-02T22:51:15.379Z,100873.56
2018-03-02T22:53:44.535Z,100879.00
2018-03-02T22:56:13.883Z,100876.52
2018-03-02T22:58:43.390Z,100874.41
2018-03-02T23:01:13.055Z,100871.07
2018-03-02T23:03:42.259Z,100869.74
2018-03-02T23:06:11.580Z,100871.00
2018-03-02T23:08:40.992Z,100870.58
2018-03-02T23:11:10.818Z,100866.82
2018-03-02T23:13:40.461Z,100866.80
2018-03-02T23:16:09.526Z,100863.42
2018-03-02T23:18:38.906Z,100857.64
2018-03-02T23:21:09.257Z,100860.52
2018-03-02T23:23:38.437Z,100866.30
2018-03-02T23:26:07.998Z,100862.95
2018-03-02T23:28:38.119Z,100860.39
2018-03-02T23:31:08.415Z,100856.67
2018-03-02T23:33:38.417Z,100861.17
2018-03-02T23:36:07.612Z,100856.61
2018-03-02T23:38:37.009Z,100856.65
2018-03-02T23:41:07.007Z,100852.49
2018-03-02T23:43:37.297Z,100849.63
2018-03-02T23:46:06.577Z,100849.59
2018-03-02T23:48:37.184Z,100854.55
2018-03-02T23:51:06.934Z,100846.30
2018-03-02T23:53:36.150Z,100848.27
2018-03-02T23:56:07.057Z,100847.39
2018-03-02T23:58:37.003Z,100852.31
